Time;durP1;ratioP1;P1;durP2;ratioP2;P2;SDS_P1;SDS_P2;PMS_P1;PMS_P2;Temp;Humidity;BMP_temperature;BMP_pressure;BME280_temperature;BME280_humidity;BME280_pressure;Samples;Min_cycle;Max_cycle;Signal;HPM_P1;HPM_P2
2023/08/10 00:04:15;;;;;;;1.63;1.10;;;;;;;-146.07;100.00;70291.31;10540529;28;20918;-67
2023/08/10 00:09:15;;;;;;;1.50;0.97;;;;;;;-146.07;100.00;70291.31;10557169;28;20043;-72
2023/08/10 00:14:15;;;;;;;1.42;1.02;;;;;;;-146.07;100.00;70291.31;10555364;28;20098;-73
2023/08/10 00:19:16;;;;;;;4.18;2.63;;;;;;;-146.07;100.00;70291.31;10554887;28;20070;-71
2023/08/10 00:24:16;;;;;;;1.37;1.00;;;;;;;-146.07;100.00;70291.31;10556597;28;20044;-71
2023/08/10 00:29:17;;;;;;;4.38;1.08;;;;;;;-146.07;100.00;70291.31;10556674;28;20441;-66
2023/08/10 00:34:18;;;;;;;6.30;1.00;;;;;;;-146.07;100.00;70291.31;10553885;28;20058;-67
2023/08/10 00:39:18;;;;;;;1.20;1.10;;;;;;;-146.07;100.00;70291.31;10553331;28;20039;-67
2023/08/10 00:44:21;;;;;;;1.43;0.80;;;;;;;-146.07;100.00;70291.31;10553772;28;20056;-65
2023/08/10 00:49:22;;;;;;;4.63;1.23;;;;;;;-146.07;100.00;70291.31;10567376;28;20042;-65
2023/08/10 00:54:22;;;;;;;2.13;1.10;;;;;;;-146.07;100.00;70291.31;10577825;28;20058;-65
2023/08/10 00:59:24;;;;;;;1.00;0.87;;;;;;;-146.07;100.00;70291.31;10579747;28;20217;-65
2023/08/10 01:04:25;;;;;;;2.30;1.25;;;;;;;-146.07;100.00;70291.31;10583208;28;20498;-65
2023/08/10 01:09:31;;;;;;;2.70;1.10;;;;;;;-146.07;100.00;70291.31;10580777;28;20027;-65
2023/08/10 01:14:38;;;;;;;1.35;0.95;;;;;;;-146.07;100.00;70291.31;10566884;28;20709;-65
2023/08/10 01:19:42;;;;;;;5.28;1.05;;;;;;;-146.07;100.00;70291.31;10575930;28;20029;-65
2023/08/10 01:24:43;;;;;;;2.60;1.23;;;;;;;-146.07;100.00;70291.31;10585711;28;20214;-65
2023/08/10 01:29:44;;;;;;;2.25;1.25;;;;;;;-146.07;100.00;70291.31;10583621;28;20095;-65
2023/08/10 01:34:44;;;;;;;1.75;1.00;;;;;;;-146.07;100.00;70291.31;10583424;28;20034;-65
2023/08/10 01:39:45;;;;;;;2.03;1.17;;;;;;;-146.07;100.00;70291.31;10584982;28;20393;-66
2023/08/10 01:44:46;;;;;;;1.00;0.95;;;;;;;-146.07;100.00;70291.31;10571053;28;20111;-66
2023/08/10 01:49:56;;;;;;;1.45;1.35;;;;;;;-146.07;100.00;70291.31;10583970;28;20374;-65
2023/08/10 01:54:58;;;;;;;2.05;1.17;;;;;;;-146.07;100.00;70291.31;10584681;28;20236;-65
2023/08/10 01:59:59;;;;;;;2.13;1.23;;;;;;;-146.07;100.00;70291.31;10566142;28;20209;-65
2023/08/10 02:05:00;;;;;;;1.23;1.13;;;;;;;-146.07;100.00;70291.31;10566363;28;20019;-66
2023/08/10 02:10:00;;;;;;;3.08;1.30;;;;;;;-146.07;100.00;70291.31;10584033;28;20086;-66
2023/08/10 02:15:01;;;;;;;4.10;1.35;;;;;;;-146.07;100.00;70291.31;10568898;28;20061;-66
2023/08/10 02:20:11;;;;;;;3.70;1.30;;;;;;;-146.07;100.00;70291.31;10582938;28;20095;-66
2023/08/10 02:25:12;;;;;;;1.13;1.00;;;;;;;-146.07;100.00;70291.31;10583999;28;20032;-66
2023/08/10 02:30:13;;;;;;;1.00;1.00;;;;;;;-146.07;100.00;70291.31;10583003;28;20011;-66
2023/08/10 02:35:14;;;;;;;2.13;1.42;;;;;;;-146.07;100.00;70291.31;10583576;28;20197;-66
2023/08/10 02:40:14;;;;;;;2.08;1.02;;;;;;;-146.07;100.00;70291.31;10582818;28;20198;-65
2023/08/10 02:45:15;;;;;;;1.70;1.40;;;;;;;-146.07;100.00;70291.31;10582444;28;20238;-65
2023/08/10 02:50:16;;;;;;;1.75;1.25;;;;;;;-146.07;100.00;70291.31;10564279;28;20016;-66
2023/08/10 02:55:17;;;;;;;2.22;1.15;;;;;;;-146.07;100.00;70291.31;10561754;28;20019;-66
2023/08/10 03:00:17;;;;;;;2.55;1.80;;;;;;;-146.07;100.00;70291.31;10581855;28;20018;-66
2023/08/10 03:05:18;;;;;;;7.40;1.92;;;;;;;-146.07;100.00;70291.31;10581726;28;20022;-66
2023/08/10 03:10:18;;;;;;;8.55;2.90;;;;;;;-146.07;100.00;70291.31;10581386;28;20015;-66
2023/08/10 03:15:19;;;;;;;4.18;2.78;;;;;;;-146.07;100.00;70291.31;10581327;28;20217;-65
2023/08/10 03:20:20;;;;;;;3.75;2.50;;;;;;;-146.07;100.00;70291.31;10580450;28;20027;-65
2023/08/10 03:25:22;;;;;;;4.47;2.78;;;;;;;-146.07;100.00;70291.31;10580670;28;20089;-66
2023/08/10 03:30:22;;;;;;;5.30;3.75;;;;;;;-146.07;100.00;70291.31;10580769;28;20355;-66
2023/08/10 03:35:22;;;;;;;4.38;3.05;;;;;;;-146.07;100.00;70291.31;10581126;28;20023;-67
2023/08/10 03:40:23;;;;;;;4.07;3.20;;;;;;;-146.07;100.00;70291.31;10580713;28;20047;-65
2023/08/10 03:45:23;;;;;;;6.68;4.30;;;;;;;-146.07;100.00;70291.31;10580399;28;20491;-66
2023/08/10 03:50:24;;;;;;;4.88;3.95;;;;;;;-146.07;100.00;70291.31;10580670;28;20065;-67
2023/08/10 03:55:25;;;;;;;4.05;2.60;;;;;;;-146.07;100.00;70291.31;10580265;28;20417;-66
2023/08/10 04:00:26;;;;;;;6.10;3.75;;;;;;;-146.07;100.00;70291.31;10578216;28;20119;-67
2023/08/10 04:05:27;;;;;;;6.15;4.13;;;;;;;-146.07;100.00;70291.31;10575465;28;20281;-67
2023/08/10 04:10:27;;;;;;;4.72;4.28;;;;;;;-146.07;100.00;70291.31;10580254;28;20359;-67
2023/08/10 04:15:30;;;;;;;7.60;5.00;;;;;;;-146.07;100.00;70291.31;10578840;28;20020;-66
2023/08/10 04:20:31;;;;;;;5.43;4.07;;;;;;;-146.07;100.00;70291.31;10575283;28;20027;-66
2023/08/10 04:25:31;;;;;;;8.27;5.15;;;;;;;-146.07;100.00;70291.31;10576247;28;20042;-66
2023/08/10 04:30:32;;;;;;;11.75;5.40;;;;;;;-146.07;100.00;70291.31;10576532;28;20378;-65
2023/08/10 04:35:32;;;;;;;7.77;5.13;;;;;;;-146.07;100.00;70291.31;10574001;28;20076;-66
2023/08/10 04:40:33;;;;;;;13.93;6.85;;;;;;;-146.07;100.00;70291.31;10571607;28;20601;-66
2023/08/10 04:45:34;;;;;;;10.45;6.65;;;;;;;-146.07;100.00;70291.31;10582301;28;20293;-65
2023/08/10 04:50:34;;;;;;;9.98;5.97;;;;;;;-146.07;100.00;70291.31;10581058;28;20018;-65
2023/08/10 04:55:35;;;;;;;10.90;6.40;;;;;;;-146.07;100.00;70291.31;10580946;28;20050;-66
2023/08/10 05:00:36;;;;;;;10.38;5.85;;;;;;;-146.07;100.00;70291.31;10582326;28;20023;-65
2023/08/10 05:05:39;;;;;;;9.82;7.53;;;;;;;-146.07;100.00;70291.31;10581433;28;20193;-66
2023/08/10 05:10:43;;;;;;;9.27;6.45;;;;;;;-146.07;100.00;70291.31;10583705;28;20535;-65
2023/08/10 05:15:44;;;;;;;14.05;7.70;;;;;;;-146.07;100.00;70291.31;10585755;28;20020;-65
2023/08/10 05:20:44;;;;;;;12.50;8.73;;;;;;;-146.07;100.00;70291.31;10585565;28;20023;-66
2023/08/10 05:25:45;;;;;;;17.10;7.37;;;;;;;-146.07;100.00;70291.31;10584755;28;20221;-65
2023/08/10 05:30:46;;;;;;;13.75;5.80;;;;;;;-146.07;100.00;70291.31;10583664;28;20559;-65
2023/08/10 05:35:46;;;;;;;11.13;5.07;;;;;;;-146.07;100.00;70291.31;10581857;28;20071;-66
2023/08/10 05:40:47;;;;;;;18.10;6.47;;;;;;;-146.07;100.00;70291.31;10580659;28;20058;-66
2023/08/10 05:45:47;;;;;;;8.43;5.70;;;;;;;-146.07;100.00;70291.31;10581306;28;20031;-66
2023/08/10 05:50:48;;;;;;;5.72;3.85;;;;;;;-146.07;100.00;70291.31;10584646;28;20247;-66
2023/08/10 05:55:49;;;;;;;9.98;4.70;;;;;;;-146.07;100.00;70291.31;10559448;28;20348;-66
2023/08/10 06:00:50;;;;;;;5.88;4.40;;;;;;;-146.07;100.00;70291.31;10559980;28;20195;-67
2023/08/10 06:05:51;;;;;;;10.13;4.80;;;;;;;-146.07;100.00;70291.31;10584573;28;20020;-66
2023/08/10 06:10:52;;;;;;;6.22;4.50;;;;;;;-146.07;100.00;70291.31;10583597;28;20038;-66
2023/08/10 06:15:52;;;;;;;5.57;4.57;;;;;;;-146.07;100.00;70291.31;10584633;28;20053;-67
2023/08/10 06:20:53;;;;;;;5.60;4.95;;;;;;;-146.07;100.00;70291.31;10583627;28;20024;-67
2023/08/10 06:25:54;;;;;;;10.70;7.20;;;;;;;-146.07;100.00;70291.31;10583175;28;20044;-67
2023/08/10 06:30:54;;;;;;;11.07;5.65;;;;;;;-146.07;100.00;70291.31;10583131;28;20273;-67
2023/08/10 06:35:55;;;;;;;17.02;6.35;;;;;;;-146.07;100.00;70291.31;10582278;28;20356;-67
2023/08/10 06:40:55;;;;;;;17.90;7.00;;;;;;;-146.07;100.00;70291.31;10582550;28;20213;-67
2023/08/10 06:45:56;;;;;;;11.75;7.40;;;;;;;-146.07;100.00;70291.31;10582109;28;20572;-67
2023/08/10 06:50:57;;;;;;;15.93;8.55;;;;;;;-146.07;100.00;70291.31;10582477;28;20038;-67
2023/08/10 06:55:57;;;;;;;14.40;8.15;;;;;;;-146.07;100.00;70291.31;10581675;28;20023;-67
2023/08/10 07:00:58;;;;;;;14.63;8.55;;;;;;;-146.07;100.00;70291.31;10581967;28;20306;-67
2023/08/10 07:05:59;;;;;;;10.35;7.35;;;;;;;-146.07;100.00;70291.31;10568474;28;20023;-67
2023/08/10 07:11:03;;;;;;;13.13;7.03;;;;;;;-146.07;100.00;70291.31;10556987;28;20023;-67
2023/08/10 07:16:03;;;;;;;12.00;6.85;;;;;;;-146.07;100.00;70291.31;10580881;28;20039;-66
2023/08/10 07:21:04;;;;;;;11.95;6.43;;;;;;;-146.07;100.00;70291.31;10581664;28;20020;-67
2023/08/10 07:26:04;;;;;;;13.73;7.28;;;;;;;-146.07;100.00;70291.31;10580853;28;20039;-66
2023/08/10 07:31:05;;;;;;;13.07;7.50;;;;;;;-146.07;100.00;70291.31;10580462;28;20019;-66
2023/08/10 07:36:06;;;;;;;9.98;6.50;;;;;;;-146.07;100.00;70291.31;10580623;28;20039;-67
2023/08/10 07:41:06;;;;;;;8.20;5.60;;;;;;;-146.07;100.00;70291.31;10580714;28;20023;-66
2023/08/10 07:46:07;;;;;;;9.87;6.17;;;;;;;-146.07;100.00;70291.31;10580371;28;20189;-67
2023/08/10 07:51:07;;;;;;;8.57;5.97;;;;;;;-146.07;100.00;70291.31;10579995;28;20261;-66
2023/08/10 07:56:08;;;;;;;7.53;5.60;;;;;;;-146.07;100.00;70291.31;10579621;28;20288;-66
2023/08/10 08:01:08;;;;;;;6.17;5.20;;;;;;;-146.07;100.00;70291.31;10579950;28;20317;-65
2023/08/10 08:06:09;;;;;;;10.60;6.28;;;;;;;-146.07;100.00;70291.31;10579948;28;20265;-67
2023/08/10 08:11:09;;;;;;;5.43;4.90;;;;;;;-146.07;100.00;70291.31;10580173;28;20031;-67
2023/08/10 08:16:10;;;;;;;7.43;4.67;;;;;;;-146.07;100.00;70291.31;10576728;28;20296;-67
2023/08/10 08:21:13;;;;;;;8.38;4.07;;;;;;;-146.07;100.00;70291.31;10577727;28;20310;-66
2023/08/10 08:26:14;;;;;;;4.53;4.05;;;;;;;-146.07;100.00;70291.31;10587861;28;20098;-67
2023/08/10 08:31:15;;;;;;;6.75;5.60;;;;;;;-146.07;100.00;70291.31;10587829;28;20019;-66
2023/08/10 08:36:15;;;;;;;8.23;5.40;;;;;;;-146.07;100.00;70291.31;10587665;28;20020;-66
2023/08/10 08:41:20;;;;;;;10.25;5.80;;;;;;;-146.07;100.00;70291.31;10587843;28;20380;-66
2023/08/10 08:46:29;;;;;;;7.68;6.15;;;;;;;-146.07;100.00;70291.31;10587272;28;20023;-66
2023/08/10 08:51:30;;;;;;;11.70;5.53;;;;;;;-146.07;100.00;70291.31;10586851;28;20058;-67
2023/08/10 08:56:31;;;;;;;7.10;4.97;;;;;;;-146.07;100.00;70291.31;10586800;28;20323;-68
2023/08/10 09:01:32;;;;;;;4.18;3.40;;;;;;;-146.07;100.00;70291.31;10586816;28;20046;-69
2023/08/10 09:06:33;;;;;;;6.25;2.85;;;;;;;-146.07;100.00;70291.31;10586288;28;20023;-67
2023/08/10 09:11:33;;;;;;;11.10;3.67;;;;;;;-146.07;100.00;70291.31;10586282;28;20503;-68
2023/08/10 09:16:36;;;;;;;5.50;3.07;;;;;;;-146.07;100.00;70291.31;10586042;28;20220;-68
2023/08/10 09:21:37;;;;;;;8.45;3.10;;;;;;;-146.07;100.00;70291.31;10585638;28;20023;-66
2023/08/10 09:26:39;;;;;;;8.68;3.38;;;;;;;-146.07;100.00;70291.31;10585764;28;20443;-66
2023/08/10 09:31:42;;;;;;;6.53;3.47;;;;;;;-146.07;100.00;70291.31;10584931;28;20592;-67
2023/08/10 09:36:52;;;;;;;8.25;3.67;;;;;;;-146.07;100.00;70291.31;10584895;28;20053;-66
2023/08/10 09:41:56;;;;;;;6.55;4.38;;;;;;;-146.07;100.00;70291.31;10577962;28;20023;-66
2023/08/10 09:46:58;;;;;;;6.95;3.63;;;;;;;-146.07;100.00;70291.31;10584818;28;20036;-67
2023/08/10 09:51:59;;;;;;;5.93;3.10;;;;;;;-146.07;100.00;70291.31;10584248;28;20244;-67
2023/08/10 09:57:00;;;;;;;4.88;2.55;;;;;;;-146.07;100.00;70291.31;10562186;28;20070;-67
2023/08/10 10:02:02;;;;;;;6.05;3.38;;;;;;;-146.07;100.00;70291.31;10582648;28;20020;-67
2023/08/10 10:07:05;;;;;;;7.97;3.45;;;;;;;-146.07;100.00;70291.31;10583865;28;20240;-67
2023/08/10 10:12:13;;;;;;;6.95;3.53;;;;;;;-146.07;100.00;70291.31;10583741;28;20034;-67
2023/08/10 10:17:19;;;;;;;5.38;2.78;;;;;;;-146.07;100.00;70291.31;10583995;28;20267;-67
2023/08/10 10:22:20;;;;;;;3.47;1.67;;;;;;;-146.07;100.00;70291.31;10583341;28;20069;-66
2023/08/10 10:27:20;;;;;;;5.53;2.58;;;;;;;-146.07;100.00;70291.31;10584600;28;20031;-66
2023/08/10 10:32:22;;;;;;;8.30;2.13;;;;;;;-146.07;100.00;70291.31;10583662;28;20090;-67
2023/08/10 10:37:30;;;;;;;5.75;2.78;;;;;;;-146.07;100.00;70291.31;10582263;28;20475;-66
2023/08/10 10:42:31;;;;;;;5.45;2.97;;;;;;;-146.07;100.00;70291.31;10581760;28;20091;-66
2023/08/10 10:47:47;;;;;;;4.95;2.63;;;;;;;-146.07;100.00;70291.31;10582878;28;20294;-66
2023/08/10 10:52:58;;;;;;;3.88;2.65;;;;;;;-146.07;100.00;70291.31;10566602;28;20020;-66
2023/08/10 10:58:00;;;;;;;3.03;2.03;;;;;;;-146.07;100.00;70291.31;10574683;28;20351;-66
2023/08/10 11:03:03;;;;;;;2.47;1.80;;;;;;;-146.07;100.00;70291.31;10573156;28;20035;-67
2023/08/10 11:08:06;;;;;;;3.65;1.88;;;;;;;-146.07;100.00;70291.31;10582662;28;20024;-66
2023/08/10 11:13:09;;;;;;;3.47;1.75;;;;;;;-146.07;100.00;70291.31;10583708;28;20024;-67
2023/08/10 11:18:11;;;;;;;4.45;1.48;;;;;;;-146.07;100.00;70291.31;10581953;28;20170;-66
2023/08/10 11:23:12;;;;;;;2.53;1.27;;;;;;;-146.07;100.00;70291.31;10573319;28;20397;-67
2023/08/10 11:28:14;;;;;;;1.35;0.95;;;;;;;-146.07;100.00;70291.31;10554740;28;20020;-66
2023/08/10 11:33:15;;;;;;;1.83;1.00;;;;;;;-146.07;100.00;70291.31;10581430;28;20064;-67
2023/08/10 11:38:16;;;;;;;8.90;1.63;;;;;;;-146.07;100.00;70291.31;10580720;28;20285;-66
2023/08/10 11:43:20;;;;;;;2.53;1.33;;;;;;;-146.07;100.00;70291.31;10580407;28;20113;-66
2023/08/10 11:48:22;;;;;;;1.98;0.68;;;;;;;-146.07;100.00;70291.31;10580173;28;20008;-66
2023/08/10 11:53:25;;;;;;;1.73;1.10;;;;;;;-146.07;100.00;70291.31;10562727;28;20023;-67
2023/08/10 11:58:32;;;;;;;2.75;1.20;;;;;;;-146.07;100.00;70291.31;10579892;28;20031;-67
2023/08/10 12:03:33;;;;;;;1.67;1.15;;;;;;;-146.07;100.00;70291.31;10579994;28;20359;-67
2023/08/10 12:08:41;;;;;;;1.50;0.87;;;;;;;-146.07;100.00;70291.31;10579983;28;20096;-67
2023/08/10 12:13:49;;;;;;;1.63;1.13;;;;;;;-146.07;100.00;70291.31;10580329;28;20046;-66
2023/08/10 12:18:50;;;;;;;1.02;0.90;;;;;;;-146.07;100.00;70291.31;10579407;28;20109;-66
2023/08/10 12:23:51;;;;;;;3.78;1.35;;;;;;;-146.07;100.00;70291.31;10580073;28;20046;-66
2023/08/10 12:28:52;;;;;;;1.83;1.15;;;;;;;-146.07;100.00;70291.31;10579587;28;20031;-67
2023/08/10 12:33:55;;;;;;;2.55;1.27;;;;;;;-146.07;100.00;70291.31;10579417;28;20351;-66
2023/08/10 12:38:57;;;;;;;0.90;0.68;;;;;;;-146.07;100.00;70291.31;10579282;28;20389;-68
2023/08/10 12:43:59;;;;;;;1.00;0.75;;;;;;;-146.07;100.00;70291.31;10580025;28;20098;-65
2023/08/10 12:48:59;;;;;;;1.35;0.80;;;;;;;-146.07;100.00;70291.31;10575932;28;20022;-72
2023/08/10 12:54:00;;;;;;;2.15;1.20;;;;;;;-146.07;100.00;70291.31;10532194;28;20352;-74
2023/08/10 12:59:00;;;;;;;1.03;0.93;;;;;;;-146.07;100.00;70291.31;10531056;28;20028;-74
2023/08/10 13:04:00;;;;;;;1.85;1.20;;;;;;;-146.07;100.00;70291.31;10531889;28;20321;-74
2023/08/10 13:09:01;;;;;;;0.83;0.60;;;;;;;-146.07;100.00;70291.31;10518332;28;20049;-71
2023/08/10 13:14:02;;;;;;;1.30;0.90;;;;;;;-146.07;100.00;70291.31;10540450;28;20341;-71
2023/08/10 13:19:03;;;;;;;0.82;0.70;;;;;;;-146.07;100.00;70291.31;10540431;28;20480;-68
2023/08/10 13:24:04;;;;;;;1.58;1.00;;;;;;;-146.07;100.00;70291.31;10540630;27;20059;-68
2023/08/10 13:29:04;;;;;;;0.93;0.70;;;;;;;-146.07;100.00;70291.31;10535580;28;20333;-67
2023/08/10 13:34:06;;;;;;;2.20;1.05;;;;;;;-146.07;100.00;70291.31;10537434;28;21056;-65
2023/08/10 13:39:07;;;;;;;1.10;0.75;;;;;;;-146.07;100.00;70291.31;10534836;28;20114;-65
2023/08/10 13:44:08;;;;;;;1.63;1.20;;;;;;;-146.07;100.00;70291.31;10538790;28;20318;-65
2023/08/10 13:49:09;;;;;;;1.45;1.02;;;;;;;-146.07;100.00;70291.31;10535291;28;20277;-65
2023/08/10 13:54:10;;;;;;;1.85;1.30;;;;;;;-146.07;100.00;70291.31;10530950;28;20109;-66
2023/08/10 13:59:10;;;;;;;1.63;1.02;;;;;;;-146.07;100.00;70291.31;10513921;28;20275;-65
2023/08/10 14:04:11;;;;;;;2.33;0.97;;;;;;;-146.07;100.00;70291.31;10528844;28;20317;-65
2023/08/10 14:09:12;;;;;;;3.15;1.08;;;;;;;-146.07;100.00;70291.31;10533625;28;20019;-65
2023/08/10 14:14:14;;;;;;;1.77;1.10;;;;;;;-146.07;100.00;70291.31;10531886;28;20035;-65
2023/08/10 14:19:15;;;;;;;3.40;1.23;;;;;;;-146.07;100.00;70291.31;10539831;28;20285;-66
2023/08/10 14:24:16;;;;;;;2.20;1.55;;;;;;;-146.07;100.00;70291.31;10530046;28;20210;-65
2023/08/10 14:29:17;;;;;;;1.48;1.38;;;;;;;-146.07;100.00;70291.31;10531885;28;20030;-66
2023/08/10 14:34:17;;;;;;;1.83;1.47;;;;;;;-146.07;100.00;70291.31;10532059;28;20452;-66
2023/08/10 14:39:18;;;;;;;5.35;1.50;;;;;;;-146.07;100.00;70291.31;10531075;28;20631;-66
2023/08/10 14:44:18;;;;;;;5.25;1.40;;;;;;;-146.07;100.00;70291.31;10532349;28;20031;-66
2023/08/10 14:49:19;;;;;;;3.42;1.75;;;;;;;-146.07;100.00;70291.31;10530479;28;20355;-66
2023/08/10 14:54:21;;;;;;;4.53;1.33;;;;;;;-146.07;100.00;70291.31;10531905;28;20035;-65
2023/08/10 14:59:21;;;;;;;3.17;1.20;;;;;;;-146.07;100.00;70291.31;10526593;28;20369;-66
2023/08/10 15:04:21;;;;;;;2.93;1.53;;;;;;;-146.07;100.00;70291.31;10525320;28;20328;-65
2023/08/10 15:09:22;;;;;;;1.30;1.10;;;;;;;-146.07;100.00;70291.31;10524272;28;20433;-65
2023/08/10 15:14:22;;;;;;;1.92;1.05;;;;;;;-146.07;100.00;70291.31;10507957;28;20281;-66
2023/08/10 15:19:23;;;;;;;1.97;1.40;;;;;;;-146.07;100.00;70291.31;10525599;28;20309;-66
2023/08/10 15:24:23;;;;;;;6.93;1.53;;;;;;;-146.07;100.00;70291.31;10526441;28;20349;-65
2023/08/10 15:29:24;;;;;;;1.63;1.23;;;;;;;-146.07;100.00;70291.31;10506255;28;20270;-65
2023/08/10 15:34:24;;;;;;;6.07;2.23;;;;;;;-146.07;100.00;70291.31;10525342;28;20502;-66
2023/08/10 15:39:27;;;;;;;9.53;3.67;;;;;;;-146.07;100.00;70291.31;10525430;28;20016;-66
2023/08/10 15:44:28;;;;;;;1.40;1.30;;;;;;;-146.07;100.00;70291.31;10536980;28;20419;-65
2023/08/10 15:49:31;;;;;;;2.30;1.53;;;;;;;-146.07;100.00;70291.31;10527538;28;20310;-66
2023/08/10 15:54:31;;;;;;;2.22;1.13;;;;;;;-146.07;100.00;70291.31;10540739;28;20285;-65
2023/08/10 15:59:33;;;;;;;2.67;1.48;;;;;;;-146.07;100.00;70291.31;10539399;28;20019;-65
2023/08/10 16:04:34;;;;;;;2.28;1.30;;;;;;;-146.07;100.00;70291.31;10540404;28;20073;-66
2023/08/10 16:09:35;;;;;;;1.80;1.40;;;;;;;-146.07;100.00;70291.31;10540649;28;20065;-66
2023/08/10 16:14:35;;;;;;;2.05;1.58;;;;;;;-146.07;100.00;70291.31;10541475;28;20283;-66
2023/08/10 16:19:35;;;;;;;3.88;1.70;;;;;;;-146.07;100.00;70291.31;10543565;28;20044;-66
2023/08/10 16:24:36;;;;;;;6.07;2.00;;;;;;;-146.07;100.00;70291.31;10548706;28;20036;-65
2023/08/10 16:29:39;;;;;;;5.07;1.67;;;;;;;-146.07;100.00;70291.31;10551855;28;20286;-65
2023/08/10 16:34:39;;;;;;;3.45;1.83;;;;;;;-146.07;100.00;70291.31;10540983;28;20032;-65
2023/08/10 16:39:39;;;;;;;2.37;1.90;;;;;;;-146.07;100.00;70291.31;10554409;27;20340;-66
2023/08/10 16:44:40;;;;;;;3.93;1.60;;;;;;;-146.07;100.00;70291.31;10559292;27;20118;-65
2023/08/10 16:49:41;;;;;;;2.75;1.15;;;;;;;-146.07;100.00;70291.31;10557268;27;20317;-66
2023/08/10 16:54:42;;;;;;;2.03;1.60;;;;;;;-146.07;100.00;70291.31;10558047;27;20063;-66
2023/08/10 16:59:42;;;;;;;2.65;1.67;;;;;;;-146.07;100.00;70291.31;10560198;27;20361;-66
2023/08/10 17:04:45;;;;;;;2.10;1.83;;;;;;;-146.07;100.00;70291.31;10555621;27;20049;-66
2023/08/10 17:09:46;;;;;;;7.78;1.42;;;;;;;-146.07;100.00;70291.31;10555152;27;20035;-66
2023/08/10 17:14:46;;;;;;;1.83;1.70;;;;;;;-146.07;100.00;70291.31;10558205;27;20328;-65
2023/08/10 17:19:47;;;;;;;4.53;2.15;;;;;;;-146.07;100.00;70291.31;10556429;27;20284;-66
2023/08/10 17:24:50;;;;;;;3.38;1.70;;;;;;;-146.07;100.00;70291.31;10554893;27;20112;-65
2023/08/10 17:29:54;;;;;;;4.15;2.00;;;;;;;-146.07;100.00;70291.31;10552663;28;20166;-66
2023/08/10 17:34:55;;;;;;;3.28;2.10;;;;;;;-146.07;100.00;70291.31;10550832;28;20268;-65
2023/08/10 17:39:56;;;;;;;7.18;2.40;;;;;;;-146.07;100.00;70291.31;10549537;28;20215;-66
2023/08/10 17:44:58;;;;;;;3.60;2.30;;;;;;;-146.07;100.00;70291.31;10548299;28;20016;-65
2023/08/10 17:49:58;;;;;;;2.65;2.13;;;;;;;-146.07;100.00;70291.31;10549824;28;20054;-65
2023/08/10 17:54:59;;;;;;;5.03;2.17;;;;;;;-146.07;100.00;70291.31;10549343;28;20031;-66
2023/08/10 18:00:06;;;;;;;5.40;2.83;;;;;;;-146.07;100.00;70291.31;10548119;28;20280;-65
2023/08/10 18:05:07;;;;;;;3.95;1.88;;;;;;;-146.07;100.00;70291.31;10533619;28;20512;-65
2023/08/10 18:10:08;;;;;;;4.05;1.92;;;;;;;-146.07;100.00;70291.31;10549710;28;20081;-65
2023/08/10 18:15:10;;;;;;;7.20;2.10;;;;;;;-146.07;100.00;70291.31;10548866;28;20031;-65
2023/08/10 18:20:10;;;;;;;4.13;2.00;;;;;;;-146.07;100.00;70291.31;10530964;28;20088;-65
2023/08/10 18:25:11;;;;;;;3.25;2.28;;;;;;;-146.07;100.00;70291.31;10550881;28;20088;-65
2023/08/10 18:30:12;;;;;;;6.38;2.33;;;;;;;-146.07;100.00;70291.31;10530687;28;20099;-66
2023/08/10 18:35:14;;;;;;;2.97;2.35;;;;;;;-146.07;100.00;70291.31;10549899;28;20217;-65
2023/08/10 18:40:14;;;;;;;4.25;2.22;;;;;;;-146.07;100.00;70291.31;10542785;28;20020;-65
2023/08/10 18:45:15;;;;;;;4.35;2.17;;;;;;;-146.07;100.00;70291.31;10542725;28;20095;-66
2023/08/10 18:50:17;;;;;;;2.70;2.10;;;;;;;-146.07;100.00;70291.31;10549440;28;20051;-66
2023/08/10 18:55:18;;;;;;;3.30;2.20;;;;;;;-146.07;100.00;70291.31;10548505;28;20081;-66
2023/08/10 19:00:19;;;;;;;2.25;2.05;;;;;;;-146.07;100.00;70291.31;10545501;28;20382;-65
2023/08/10 19:05:19;;;;;;;2.72;1.92;;;;;;;-146.07;100.00;70291.31;10546934;28;20229;-65
2023/08/10 19:10:20;;;;;;;4.95;2.20;;;;;;;-146.07;100.00;70291.31;10547250;28;20095;-65
2023/08/10 19:15:20;;;;;;;5.30;1.90;;;;;;;-146.07;100.00;70291.31;10546924;28;20020;-65
2023/08/10 19:20:21;;;;;;;4.30;1.97;;;;;;;-146.07;100.00;70291.31;10530658;28;20309;-65
2023/08/10 19:25:21;;;;;;;4.07;2.33;;;;;;;-146.07;100.00;70291.31;10547417;27;20712;-65
2023/08/10 19:30:22;;;;;;;4.35;2.38;;;;;;;-146.07;100.00;70291.31;10556119;27;20334;-67
2023/08/10 19:35:22;;;;;;;5.65;2.60;;;;;;;-146.07;100.00;70291.31;10531831;27;20024;-66
2023/08/10 19:40:23;;;;;;;3.67;3.10;;;;;;;-146.07;100.00;70291.31;10552969;27;20209;-66
2023/08/10 19:45:23;;;;;;;4.55;3.53;;;;;;;-146.07;100.00;70291.31;10552356;27;20687;-65
2023/08/10 19:50:24;;;;;;;6.45;3.00;;;;;;;-146.07;100.00;70291.31;10554817;27;20022;-66
2023/08/10 19:55:25;;;;;;;6.35;2.40;;;;;;;-146.07;100.00;70291.31;10551796;27;20039;-67
2023/08/10 20:00:25;;;;;;;3.45;2.17;;;;;;;-146.07;100.00;70291.31;10557357;27;20020;-65
2023/08/10 20:05:26;;;;;;;3.92;1.73;;;;;;;-146.07;100.00;70291.31;10554158;28;20129;-65
2023/08/10 20:10:26;;;;;;;3.93;2.40;;;;;;;-146.07;100.00;70291.31;10552931;28;20045;-65
2023/08/10 20:15:27;;;;;;;2.60;2.28;;;;;;;-146.07;100.00;70291.31;10558752;27;20310;-65
2023/08/10 20:20:27;;;;;;;7.97;2.47;;;;;;;-146.07;100.00;70291.31;10558243;27;20028;-66
2023/08/10 20:25:29;;;;;;;4.05;2.47;;;;;;;-146.07;100.00;70291.31;10562395;27;20297;-65
2023/08/10 20:30:34;;;;;;;5.30;3.20;;;;;;;-146.07;100.00;70291.31;10559681;27;20046;-65
2023/08/10 20:35:35;;;;;;;3.67;2.95;;;;;;;-146.07;100.00;70291.31;10561327;27;20028;-65
2023/08/10 20:40:36;;;;;;;5.38;3.03;;;;;;;-146.07;100.00;70291.31;10555049;27;20027;-65
2023/08/10 20:45:37;;;;;;;8.02;3.15;;;;;;;-146.07;100.00;70291.31;10557661;27;20064;-65
2023/08/10 20:50:37;;;;;;;4.60;3.50;;;;;;;-146.07;100.00;70291.31;10537790;27;20072;-66
2023/08/10 20:55:38;;;;;;;5.50;3.00;;;;;;;-146.07;100.00;70291.31;10561254;27;20288;-66
2023/08/10 21:00:38;;;;;;;5.43;2.60;;;;;;;-146.07;100.00;70291.31;10558390;27;20056;-66
2023/08/10 21:05:39;;;;;;;2.97;2.67;;;;;;;-146.07;100.00;70291.31;10559678;27;20268;-65
2023/08/10 21:10:39;;;;;;;7.20;2.93;;;;;;;-146.07;100.00;70291.31;10557212;27;20194;-65
2023/08/10 21:15:40;;;;;;;6.45;3.40;;;;;;;-146.07;100.00;70291.31;10538508;27;20623;-66
2023/08/10 21:20:41;;;;;;;5.10;2.83;;;;;;;-146.07;100.00;70291.31;10541489;27;20386;-65
2023/08/10 21:25:42;;;;;;;5.53;2.55;;;;;;;-146.07;100.00;70291.31;10548020;27;20040;-65
2023/08/10 21:30:42;;;;;;;8.60;3.23;;;;;;;-146.07;100.00;70291.31;10549216;28;20042;-65
2023/08/10 21:35:43;;;;;;;6.07;3.10;;;;;;;-146.07;100.00;70291.31;10547224;28;20311;-65
2023/08/10 21:40:43;;;;;;;4.22;3.15;;;;;;;-146.07;100.00;70291.31;10530263;28;20019;-65
2023/08/10 21:45:43;;;;;;;10.70;3.40;;;;;;;-146.07;100.00;70291.31;10549777;28;20218;-65
2023/08/10 21:50:44;;;;;;;7.53;4.13;;;;;;;-146.07;100.00;70291.31;10550918;28;20283;-65
2023/08/10 21:55:45;;;;;;;6.47;4.00;;;;;;;-146.07;100.00;70291.31;10549964;28;20328;-66
2023/08/10 22:00:46;;;;;;;6.80;3.90;;;;;;;-146.07;100.00;70291.31;10549702;28;20273;-65
2023/08/10 22:05:47;;;;;;;6.20;3.42;;;;;;;-146.07;100.00;70291.31;10549561;28;20051;-66
2023/08/10 22:10:47;;;;;;;5.43;4.13;;;;;;;-146.07;100.00;70291.31;10553086;28;20103;-65
2023/08/10 22:15:48;;;;;;;15.00;4.40;;;;;;;-146.07;100.00;70291.31;10546447;28;20027;-66
2023/08/10 22:20:48;;;;;;;4.28;3.60;;;;;;;-146.07;100.00;70291.31;10550962;28;20394;-65
2023/08/10 22:25:49;;;;;;;4.53;3.45;;;;;;;-146.07;100.00;70291.31;10533030;28;20070;-65
2023/08/10 22:30:51;;;;;;;4.60;3.17;;;;;;;-146.07;100.00;70291.31;10547184;28;20028;-65